Time;durP1;ratioP1;P1;durP2;ratioP2;P2;SDS_P1;SDS_P2;PMS_P1;PMS_P2;Temp;Humidity;BMP_temperature;BMP_pressure;BME280_temperature;BME280_humidity;BME280_pressure;Samples;Min_cycle;Max_cycle;Signal;HPM_P1;HPM_P2
2019/04/13 00:01:08;;;;;;;42.7;33.2;;;;;;;6.54;65.8125;938.5015;;;;
2019/04/13 00:04:22;;;;;;;44.3;32.8;;;;;;;6.25;66.83203;938.4567;;;;
2019/04/13 00:07:33;;;;;;;40.9;32.6;;;;;;;6.46;66.77441;938.4316;;;;
2019/04/13 00:11:02;;;;;;;42.9;33.3;;;;;;;6.46;66.00488;938.3983;;;;
2019/04/13 00:14:13;;;;;;;42.2;31.9;;;;;;;6.1;68.23242;938.3325;;;;
2019/04/13 00:17:23;;;;;;;46.1;35.3;;;;;;;5.95;69.81348;938.348;;;;
2019/04/13 00:20:33;;;;;;;49.4;36.2;;;;;;;5.89;71.375;938.3272;;;;
2019/04/13 00:23:43;;;;;;;46;35.4;;;;;;;5.98;68.92578;938.325;;;;
2019/04/13 00:26:54;;;;;;;45.5;34.6;;;;;;;5.87;69.01953;938.3209;;;;
2019/04/13 00:30:04;;;;;;;42.9;33.8;;;;;;;6.01;68.77051;938.3778;;;;
2019/04/13 00:33:14;;;;;;;45.5;35.1;;;;;;;5.97;71.33984;938.301;;;;
2019/04/13 00:36:24;;;;;;;46.2;36.2;;;;;;;6.05;71.20703;938.2734;;;;
2019/04/13 00:39:34;;;;;;;46.3;34.8;;;;;;;6.16;70.21875;938.2651;;;;
2019/04/13 00:42:48;;;;;;;42.8;34.9;;;;;;;5.81;71.19043;938.2365;;;;
2019/04/13 00:45:58;;;;;;;43.2;34.1;;;;;;;5.67;72.4873;938.2766;;;;
2019/04/13 00:49:10;;;;;;;47.3;35;;;;;;;5.54;72.88281;938.2395;;;;
2019/04/13 00:52:20;;;;;;;44.9;35.9;;;;;;;5.59;72.94922;938.2401;;;;
2019/04/13 00:55:31;;;;;;;43.6;34.3;;;;;;;5.64;72.71973;938.1358;;;;
2019/04/13 00:58:41;;;;;;;47.6;35.7;;;;;;;5.55;72.87305;938.2556;;;;
2019/04/13 01:01:51;;;;;;;48.6;36.5;;;;;;;5.24;73.36035;938.2328;;;;
2019/04/13 01:05:01;;;;;;;47.4;37.4;;;;;;;5.27;73.20898;938.226;;;;
2019/04/13 01:08:11;;;;;;;48.1;37.1;;;;;;;5.29;73.05469;938.2667;;;;
2019/04/13 01:11:21;;;;;;;47.3;36.7;;;;;;;5.35;72.94238;938.2703;;;;
2019/04/13 01:14:31;;;;;;;50.8;38.5;;;;;;;5.02;74.2832;938.2272;;;;
2019/04/13 01:17:42;;;;;;;49.9;36.3;;;;;;;4.65;74.93848;938.111;;;;
2019/04/13 01:20:52;;;;;;;46.9;37.3;;;;;;;4.95;73.64941;938.2285;;;;
2019/04/13 01:24:05;;;;;;;47.2;36.7;;;;;;;5.02;72.61523;938.1978;;;;
2019/04/13 01:27:16;;;;;;;50.4;38.1;;;;;;;5.15;71.8584;938.1716;;;;
2019/04/13 01:30:27;;;;;;;50.1;37.6;;;;;;;5.07;72.02539;938.2025;;;;
2019/04/13 01:33:37;;;;;;;50;36.5;;;;;;;4.95;72.32129;938.1774;;;;
2019/04/13 01:36:47;;;;;;;48.3;36.6;;;;;;;4.84;72.27832;938.1691;;;;
2019/04/13 01:39:57;;;;;;;48.4;35.1;;;;;;;5.16;70.98047;938.175;;;;
2019/04/13 01:43:07;;;;;;;48.5;35.8;;;;;;;5.21;70.04102;938.176;;;;
2019/04/13 01:46:20;;;;;;;46.5;36.1;;;;;;;5.26;71.07617;938.1261;;;;
2019/04/13 01:49:33;;;;;;;48.4;35.9;;;;;;;5.42;71.29492;938.1644;;;;
2019/04/13 01:52:43;;;;;;;49;37.5;;;;;;;5.35;72.50098;938.098;;;;
2019/04/13 01:55:53;;;;;;;49.5;37.8;;;;;;;5.22;73.4834;938.0739;;;;
2019/04/13 01:59:04;;;;;;;51.5;38.4;;;;;;;5;74.34766;938.0684;;;;
2019/04/13 02:05:48;;;;;;;49.2;38.2;;;;;;;5.08;73.77441;938.0005;;;;
2019/04/13 02:09:58;;;;;;;48.8;37.9;;;;;;;5.2;72.94824;938.05;;;;
2019/04/13 02:11:38;;;;;;;50.7;39.1;;;;;;;5.14;72.59961;938.0041;;;;
2019/04/13 02:14:48;;;;;;;50.9;38.1;;;;;;;5.24;72.1543;938.0055;;;;
2019/04/13 02:17:58;;;;;;;50.2;38.1;;;;;;;5.2;72.74707;937.9908;;;;
2019/04/13 02:21:18;;;;;;;51;38.3;;;;;;;5.29;72.23242;937.959;;;;
2019/04/13 02:24:28;;;;;;;51.1;38.5;;;;;;;5.26;72.9707;937.9619;;;;
2019/04/13 02:27:39;;;;;;;48.6;39;;;;;;;5.23;72.80859;937.943;;;;
2019/04/13 02:30:49;;;;;;;53.5;39.8;;;;;;;4.93;74.0293;937.9186;;;;
2019/04/13 02:33:59;;;;;;;56.7;40;;;;;;;4.87;74.65137;937.8467;;;;
2019/04/13 02:37:09;;;;;;;50.7;38.5;;;;;;;5.15;72.83789;937.915;;;;
2019/04/13 02:40:21;;;;;;;56.4;39.6;;;;;;;5.47;70.89648;937.8663;;;;
2019/04/13 02:43:39;;;;;;;51.5;38.2;;;;;;;5.6;70.57813;937.8477;;;;
2019/04/13 02:46:49;;;;;;;49.3;38.6;;;;;;;5.6;69.75488;937.873;;;;
2019/04/13 02:49:59;;;;;;;53;38.6;;;;;;;5.5;70.34961;937.8088;;;;
2019/04/13 02:53:10;;;;;;;51.2;38;;;;;;;5.62;70.12012;937.7625;;;;
2019/04/13 02:56:20;;;;;;;51.2;39.2;;;;;;;5.52;71.07324;937.8036;;;;
2019/04/13 02:59:30;;;;;;;53.6;39.5;;;;;;;5.18;71.36719;937.7147;;;;
2019/04/13 03:02:40;;;;;;;53.3;39.5;;;;;;;5.03;73.48438;937.7388;;;;
2019/04/13 03:05:50;;;;;;;53.8;39.4;;;;;;;4.99;74.06152;937.7372;;;;
2019/04/13 03:09:00;;;;;;;53.8;39.8;;;;;;;4.87;73.63672;937.7332;;;;
2019/04/13 03:12:11;;;;;;;50.1;38.3;;;;;;;4.89;72.44531;937.7108;;;;
2019/04/13 03:15:26;;;;;;;50.7;38.2;;;;;;;4.79;74.77148;937.6839;;;;
2019/04/13 03:22:04;;;;;;;52.7;39.3;;;;;;;4.98;73.67773;937.6575;;;;
2019/04/13 03:25:14;;;;;;;49;37.8;;;;;;;4.68;74.95605;937.6878;;;;
2019/04/13 03:28:24;;;;;;;52.4;39.6;;;;;;;4.88;74.99023;937.6649;;;;
2019/04/13 03:31:34;;;;;;;53.7;40;;;;;;;5.11;73.22656;937.7198;;;;
2019/04/13 03:34:44;;;;;;;52.3;41.1;;;;;;;5.07;73.36621;937.6556;;;;
2019/04/13 03:37:54;;;;;;;51.7;38.6;;;;;;;4.77;74.30664;937.6518;;;;
2019/04/13 03:41:04;;;;;;;53.3;39.3;;;;;;;4.66;75.38965;937.5678;;;;
2019/04/13 03:44:14;;;;;;;55.6;40.5;;;;;;;4.72;75.53613;937.5927;;;;
2019/04/13 03:47:24;;;;;;;47.8;37.9;;;;;;;4.51;76.6123;937.5701;;;;
2019/04/13 03:50:35;;;;;;;49.6;38.8;;;;;;;4.26;76.44531;937.5793;;;;
2019/04/13 03:53:45;;;;;;;50.9;38.3;;;;;;;4.48;76.25879;937.5849;;;;
2019/04/13 03:56:55;;;;;;;51.6;39.1;;;;;;;4.52;75.53516;937.5942;;;;
2019/04/13 04:00:05;;;;;;;50.7;38.7;;;;;;;4.77;74.52051;937.5469;;;;
2019/04/13 04:06:09;;;;;;;55.1;40.5;;;;;;;4.97;73.70996;937.5491;;;;
2019/04/13 04:09:19;;;;;;;51.1;39.5;;;;;;;5.17;70.53125;937.4122;;;;
2019/04/13 04:12:30;;;;;;;62.2;46.4;;;;;;;5.14;70.00781;937.4691;;;;
2019/04/13 04:15:40;;;;;;;54.7;40.8;;;;;;;4.63;71.32031;937.448;;;;
2019/04/13 04:18:50;;;;;;;54.4;39.4;;;;;;;5.12;69.88086;937.496;;;;
2019/04/13 04:22:01;;;;;;;53;40.7;;;;;;;5.24;70.1709;937.5123;;;;
2019/04/13 04:25:11;;;;;;;50.3;39.2;;;;;;;4.69;71.43066;937.452;;;;
2019/04/13 04:28:21;;;;;;;52.7;38.8;;;;;;;4.96;70.78809;937.5416;;;;
2019/04/13 04:31:31;;;;;;;52.1;39.8;;;;;;;5;71.1582;937.4836;;;;
2019/04/13 04:34:41;;;;;;;53.5;38;;;;;;;4.67;71.48535;937.4617;;;;
2019/04/13 04:37:54;;;;;;;52;38.5;;;;;;;4.66;72.77832;937.4664;;;;
2019/04/13 04:41:04;;;;;;;51.6;40.2;;;;;;;4.99;70.33203;937.5267;;;;
2019/04/13 04:44:18;;;;;;;50.9;38.8;;;;;;;4.94;71.28125;937.5474;;;;
2019/04/13 04:47:28;;;;;;;50.7;39.5;;;;;;;5.07;71.57422;937.5838;;;;
2019/04/13 04:50:39;;;;;;;53.7;40.8;;;;;;;5.05;70.5791;937.5982;;;;
2019/04/13 04:53:50;;;;;;;53;39.4;;;;;;;5.03;70.15918;937.5867;;;;
2019/04/13 04:57:02;;;;;;;52.5;40.1;;;;;;;5.23;70.30469;937.5388;;;;
2019/04/13 05:00:12;;;;;;;52.1;41.2;;;;;;;5.03;70.59863;937.4352;;;;
2019/04/13 05:03:23;;;;;;;48.7;38.3;;;;;;;4.94;70.41309;937.5812;;;;
2019/04/13 05:06:33;;;;;;;52.2;40.5;;;;;;;5.16;69.0293;937.5982;;;;
2019/04/13 05:09:44;;;;;;;51.4;40.2;;;;;;;5.27;69.85938;937.5399;;;;
2019/04/13 05:12:54;;;;;;;53.2;39.6;;;;;;;5.19;70.53418;937.6212;;;;
2019/04/13 05:16:04;;;;;;;50.8;39.3;;;;;;;5.2;72.24902;937.5408;;;;
2019/04/13 05:19:15;;;;;;;49.7;38.2;;;;;;;5.16;72.7168;937.5644;;;;
2019/04/13 05:22:25;;;;;;;49.3;38.3;;;;;;;5.41;70.87598;937.5798;;;;
2019/04/13 05:25:35;;;;;;;47.8;38;;;;;;;5.29;70.92285;937.5807;;;;
2019/04/13 05:28:46;;;;;;;50.5;37.9;;;;;;;5.23;72.1543;937.5262;;;;
2019/04/13 05:31:56;;;;;;;48.5;38.4;;;;;;;4.99;72.23535;937.5605;;;;
2019/04/13 05:35:06;;;;;;;50.6;39.3;;;;;;;4.84;74.72461;937.4996;;;;
2019/04/13 05:38:17;;;;;;;51.8;39.1;;;;;;;4.76;74.83301;937.4975;;;;
2019/04/13 05:41:27;;;;;;;55.8;41.6;;;;;;;4.82;75.91602;937.4548;;;;
2019/04/13 05:44:37;;;;;;;53.7;40.6;;;;;;;5.07;74.22363;937.5334;;;;
2019/04/13 05:47:47;;;;;;;60.5;43.9;;;;;;;5.31;72.85547;937.4819;;;;
2019/04/13 05:51:00;;;;;;;54.6;41.5;;;;;;;5.33;72.9043;937.5439;;;;
2019/04/13 05:54:13;;;;;;;50.2;38.8;;;;;;;5.65;69.57129;937.5028;;;;
2019/04/13 05:57:23;;;;;;;46.7;37.2;;;;;;;5.51;70.30566;937.5808;;;;
2019/04/13 06:00:34;;;;;;;46.3;36.2;;;;;;;5.83;69.31836;937.5653;;;;
2019/04/13 06:03:44;;;;;;;47.1;36.3;;;;;;;5.66;69.7207;937.6451;;;;
2019/04/13 06:06:54;;;;;;;45.9;36.4;;;;;;;5.53;69.19141;937.6169;;;;
2019/04/13 06:10:05;;;;;;;47.5;36.8;;;;;;;5.44;71.27539;937.6532;;;;
2019/04/13 06:13:15;;;;;;;46.3;36;;;;;;;6.07;67.75293;937.5634;;;;
2019/04/13 06:16:25;;;;;;;45.4;35.3;;;;;;;5.64;68.54297;937.5792;;;;
2019/04/13 06:19:35;;;;;;;42.5;34.1;;;;;;;6.01;67.40332;937.5812;;;;
2019/04/13 06:22:46;;;;;;;43.4;33.1;;;;;;;6.04;66.82129;937.659;;;;
2019/04/13 06:25:56;;;;;;;43.9;34.3;;;;;;;6.02;65.54199;937.6275;;;;
2019/04/13 06:29:06;;;;;;;42.5;33.3;;;;;;;6.28;64.95996;937.6234;;;;
2019/04/13 06:32:44;;;;;;;44.1;34.1;;;;;;;6.21;66.0791;937.6248;;;;
2019/04/13 06:35:54;;;;;;;40.5;33.7;;;;;;;6.25;64.84277;937.5792;;;;
2019/04/13 06:39:06;;;;;;;41.3;33.2;;;;;;;6.13;66.22461;937.6225;;;;
2019/04/13 06:42:16;;;;;;;45.4;34.2;;;;;;;5.75;67.26172;937.6847;;;;
2019/04/13 06:45:26;;;;;;;45.1;35.3;;;;;;;5.4;70.41211;937.6983;;;;
2019/04/13 06:48:37;;;;;;;43.8;34.6;;;;;;;5.89;66.2793;937.6743;;;;
2019/04/13 06:51:50;;;;;;;45.4;34.7;;;;;;;6.19;64.86621;937.601;;;;
2019/04/13 06:55:01;;;;;;;39.6;31.1;;;;;;;6.14;63.60449;937.6345;;;;
2019/04/13 06:58:12;;;;;;;40.5;31.8;;;;;;;5.94;64.02637;937.616;;;;
2019/04/13 07:01:23;;;;;;;41.7;31.7;;;;;;;6.08;64.89551;937.6806;;;;
2019/04/13 07:04:33;;;;;;;40.1;32.4;;;;;;;6.17;64.63965;937.5936;;;;
2019/04/13 07:07:47;;;;;;;42.2;32.1;;;;;;;6.43;65.63965;937.658;;;;
2019/04/13 07:11:21;;;;;;;40.3;30.7;;;;;;;6.63;63.65527;937.6424;;;;
2019/04/13 07:14:32;;;;;;;38.4;30.7;;;;;;;6.94;61.65137;937.6386;;;;
2019/04/13 07:17:42;;;;;;;39;30.4;;;;;;;6.65;63.99805;937.6365;;;;
2019/04/13 07:20:52;;;;;;;36.7;30.2;;;;;;;7.08;62.35059;937.6442;;;;
2019/04/13 07:24:03;;;;;;;36.3;30.1;;;;;;;6.87;61.42676;937.6316;;;;
2019/04/13 07:27:16;;;;;;;39.4;30.3;;;;;;;7.05;60.68164;937.6508;;;;
2019/04/13 07:30:29;;;;;;;38.2;30;;;;;;;6.96;60.51172;937.628;;;;
2019/04/13 07:33:39;;;;;;;37.5;30;;;;;;;6.93;61.01758;937.7065;;;;
2019/04/13 07:36:50;;;;;;;37.2;29.8;;;;;;;6.8;62.66113;937.6961;;;;
2019/04/13 07:40:00;;;;;;;37.5;30.4;;;;;;;6.79;61.56152;937.6801;;;;
2019/04/13 07:43:11;;;;;;;37.3;29.8;;;;;;;7.23;60.17383;937.7;;;;
2019/04/13 07:46:28;;;;;;;37.3;29.3;;;;;;;7.01;60.79004;937.6919;;;;
2019/04/13 07:49:48;;;;;;;38.9;30.6;;;;;;;7.01;60.09961;937.7045;;;;
2019/04/13 07:53:00;;;;;;;38.3;30.1;;;;;;;7.27;60.15918;937.6961;;;;
2019/04/13 07:56:12;;;;;;;36.4;30;;;;;;;7.04;60.7832;937.702;;;;
2019/04/13 07:59:22;;;;;;;38.4;30.5;;;;;;;7.08;61.16309;937.7916;;;;
2019/04/13 08:02:33;;;;;;;37.6;30.2;;;;;;;7.14;60.98926;937.7492;;;;
2019/04/13 08:05:43;;;;;;;36.9;29.9;;;;;;;7.36;60.88574;937.7772;;;;
2019/04/13 08:08:56;;;;;;;36.3;30.3;;;;;;;7.22;60.25293;937.7512;;;;
2019/04/13 08:12:06;;;;;;;41.1;30.4;;;;;;;7.24;60.39258;937.8127;;;;
2019/04/13 08:15:17;;;;;;;36.9;30.8;;;;;;;7.16;60.98047;937.794;;;;
2019/04/13 08:18:33;;;;;;;36.3;29.8;;;;;;;7.3;61.71484;937.7742;;;;
2019/04/13 08:21:45;;;;;;;37.2;29.8;;;;;;;7.58;59.54395;937.8103;;;;
2019/04/13 08:24:55;;;;;;;35;28.5;;;;;;;8.03;57.91504;937.8444;;;;
2019/04/13 08:28:05;;;;;;;35.6;29.4;;;;;;;8.01;57.66309;937.7321;;;;
2019/04/13 08:31:16;;;;;;;34.2;28.9;;;;;;;8.32;58.16992;937.7942;;;;
2019/04/13 08:34:27;;;;;;;35.2;29.4;;;;;;;8.37;59.08594;937.7644;;;;
2019/04/13 08:37:38;;;;;;;39;30.1;;;;;;;8.28;58.59668;937.7341;;;;
2019/04/13 08:40:48;;;;;;;39.4;31.5;;;;;;;7.63;59.23242;937.688;;;;
2019/04/13 08:43:59;;;;;;;39.8;31;;;;;;;7.53;61.94043;937.7173;;;;
2019/04/13 08:47:09;;;;;;;37.3;30.2;;;;;;;8.27;60.10449;937.7187;;;;
2019/04/13 08:50:19;;;;;;;36.2;29;;;;;;;8.38;58.78027;937.7003;;;;
2019/04/13 08:53:30;;;;;;;36.2;28.5;;;;;;;8.45;58.11914;937.6652;;;;
2019/04/13 08:56:40;;;;;;;38;30.3;;;;;;;8.54;57.66504;937.6024;;;;
2019/04/13 08:59:50;;;;;;;39.1;30.9;;;;;;;8;59.69336;937.6309;;;;
2019/04/13 09:03:01;;;;;;;37.7;31.3;;;;;;;8.25;58.98926;937.6097;;;;
2019/04/13 09:06:11;;;;;;;38.1;30.2;;;;;;;8.35;59.17383;937.6989;;;;
2019/04/13 09:09:26;;;;;;;35.5;28.2;;;;;;;8.8;57.25684;937.5876;;;;
2019/04/13 09:12:36;;;;;;;33.9;27.4;;;;;;;9.19;55.71387;937.6086;;;;
2019/04/13 09:15:47;;;;;;;33.7;28;;;;;;;8.97;57.66602;937.5347;;;;
2019/04/13 09:19:09;;;;;;;36;28.6;;;;;;;9.18;55.77051;937.592;;;;
2019/04/13 09:22:22;;;;;;;36.3;29.4;;;;;;;8.86;58.62891;937.4982;;;;
2019/04/13 09:25:32;;;;;;;38.1;29.2;;;;;;;9.09;57.20508;937.5153;;;;
2019/04/13 09:28:42;;;;;;;37;30.6;;;;;;;9.3;57.46094;937.4881;;;;
2019/04/13 09:31:53;;;;;;;38.4;30;;;;;;;9.47;55.54492;937.4269;;;;
2019/04/13 09:35:03;;;;;;;38.1;31.4;;;;;;;9.43;56.06543;937.3795;;;;
2019/04/13 09:38:13;;;;;;;43.1;32.4;;;;;;;8.74;59.625;937.3438;;;;
2019/04/13 09:41:24;;;;;;;40.2;32.6;;;;;;;8.71;58.7793;937.2615;;;;
2019/04/13 09:44:35;;;;;;;39.7;32.3;;;;;;;8.93;58.85645;937.3389;;;;
2019/04/13 09:47:45;;;;;;;40.4;32.2;;;;;;;9.2;57.83301;937.3236;;;;
2019/04/13 09:50:55;;;;;;;39.6;31.8;;;;;;;9.38;58.48535;937.2562;;;;
2019/04/13 09:54:07;;;;;;;42;31.9;;;;;;;10.1;55.93555;937.2366;;;;
2019/04/13 09:57:17;;;;;;;40.8;31.2;;;;;;;10.1;53.59668;937.2245;;;;
2019/04/13 10:00:27;;;;;;;40.4;31.4;;;;;;;10.19;54.56641;937.1267;;;;
2019/04/13 10:03:38;;;;;;;36.4;30.5;;;;;;;11.13;51.80371;937.1128;;;;
2019/04/13 10:06:48;;;;;;;38.6;31.4;;;;;;;10.76;54.50098;937.098;;;;
2019/04/13 10:09:58;;;;;;;35.6;30.2;;;;;;;11.19;51.35449;937.039;;;;
2019/04/13 10:17:57;;;;;;;38.9;30.6;;;;;;;12.88;46.56055;937.0385;;;;
2019/04/13 10:21:07;;;;;;;37.5;31.9;;;;;;;11.73;50.60547;936.9766;;;;
2019/04/13 10:24:31;;;;;;;38.1;32.1;;;;;;;10.76;52.3877;936.9922;;;;
2019/04/13 10:27:33;;;;;;;38.4;32;;;;;;;11.1;52.10938;936.8649;;;;
2019/04/13 10:30:44;;;;;;;36.9;31;;;;;;;11.46;50.75586;936.8303;;;;
2019/04/13 10:33:57;;;;;;;40.8;33.3;;;;;;;11.01;51.76563;936.8106;;;;
2019/04/13 10:37:06;;;;;;;37.1;31.1;;;;;;;10.84;53.27734;936.7715;;;;
2019/04/13 10:40:16;;;;;;;40.6;32.3;;;;;;;11.36;50.96289;936.7626;;;;
2019/04/13 10:43:28;;;;;;;38.5;31.4;;;;;;;10.93;51.92969;936.6987;;;;
2019/04/13 10:50:23;;;;;;;41.1;32.3;;;;;;;9.77;56.14258;936.7158;;;;
2019/04/13 10:53:33;;;;;;;42.9;34.2;;;;;;;9.78;55.1875;936.6555;;;;
2019/04/13 10:56:43;;;;;;;43.3;34.7;;;;;;;9.43;55.97461;936.6294;;;;
2019/04/13 10:59:54;;;;;;;41.9;34;;;;;;;9.97;55.87305;936.6336;;;;
2019/04/13 11:03:04;;;;;;;41;33.2;;;;;;;10.47;53.87109;936.5273;;;;
2019/04/13 11:06:14;;;;;;;42.5;33;;;;;;;10.94;51.62109;936.4988;;;;
2019/04/13 11:09:24;;;;;;;41.1;31.8;;;;;;;11.54;50.22852;936.4431;;;;
2019/04/13 11:12:34;;;;;;;38.4;32.1;;;;;;;10.55;53.89258;936.4769;;;;
2019/04/13 11:15:47;;;;;;;39.6;32.5;;;;;;;9.88;56.15723;936.4261;;;;
2019/04/13 11:18:58;;;;;;;41.5;34.1;;;;;;;10.11;54.52246;936.4339;;;;
2019/04/13 11:22:08;;;;;;;41;32.5;;;;;;;10.84;53.54004;936.3725;;;;
2019/04/13 11:25:19;;;;;;;43.6;32.7;;;;;;;10.38;53.91699;936.4174;;;;
2019/04/13 11:28:29;;;;;;;41.2;33.1;;;;;;;10.14;54.83496;936.3967;;;;
2019/04/13 11:31:43;;;;;;;40.1;33.3;;;;;;;11.6;52.68457;936.2542;;;;
2019/04/13 11:34:53;;;;;;;37.5;30.3;;;;;;;14.67;45.0918;936.2339;;;;
2019/04/13 11:38:06;;;;;;;35.7;29.7;;;;;;;15.47;39.50488;936.1933;;;;
2019/04/13 11:41:36;;;;;;;32.3;28.1;;;;;;;16.27;37.96875;936.2404;;;;
2019/04/13 11:45:23;;;;;;;33.8;29.6;;;;;;;13.48;45.21094;936.1989;;;;
2019/04/13 11:51:41;;;;;;;38.6;31.3;;;;;;;12.13;51.29395;936.1577;;;;
2019/04/13 11:54:51;;;;;;;36.2;31.4;;;;;;;12.44;47.41895;936.1558;;;;
2019/04/13 11:58:01;;;;;;;37.9;30.9;;;;;;;13.8;44.11621;936.0614;;;;
2019/04/13 12:08:10;;;;;;;36.6;30.9;;;;;;;12.39;47.63281;935.9814;;;;
2019/04/13 12:11:40;;;;;;;38.1;31.2;;;;;;;13.16;46.24512;935.9773;;;;
2019/04/13 12:14:55;;;;;;;35.8;30;;;;;;;12.67;46.7334;935.9863;;;;
2019/04/13 12:18:35;;;;;;;36.9;30.7;;;;;;;13.72;45.67285;935.9083;;;;
2019/04/13 12:22:01;;;;;;;36;29.6;;;;;;;13.62;44.25879;935.8937;;;;
2019/04/13 12:25:11;;;;;;;37.1;30.8;;;;;;;12.06;48.85645;935.9478;;;;
2019/04/13 12:28:21;;;;;;;36.8;31.1;;;;;;;11.97;47.63184;935.9531;;;;
2019/04/13 12:31:31;;;;;;;36.1;29.7;;;;;;;13.19;43.70898;935.9103;;;;
2019/04/13 12:34:42;;;;;;;35.5;29.4;;;;;;;13.82;42.60059;935.8839;;;;
2019/04/13 12:37:52;;;;;;;35.4;29.2;;;;;;;13.06;45.9707;935.877;;;;
2019/04/13 12:41:08;;;;;;;36.8;29.3;;;;;;;13.22;44.71387;935.8641;;;;
2019/04/13 12:44:19;;;;;;;36.1;29.4;;;;;;;13.3;43.36523;935.8684;;;;
2019/04/13 12:47:29;;;;;;;33.2;28.3;;;;;;;14.66;40.33105;935.7388;;;;
2019/04/13 12:50:39;;;;;;;37.7;29.2;;;;;;;13.71;43.54395;935.725;;;;
2019/04/13 12:53:49;;;;;;;37.7;29.3;;;;;;;13.83;42.80859;935.7766;;;;
2019/04/13 12:56:59;;;;;;;37.9;29;;;;;;;14.55;41.02441;935.7635;;;;
2019/04/13 13:00:23;;;;;;;34.2;28.3;;;;;;;14.94;40.44922;935.7319;;;;
2019/04/13 13:03:27;;;;;;;33.1;28;;;;;;;15.52;38.04297;935.6863;;;;
2019/04/13 13:06:38;;;;;;;35.6;29;;;;;;;14.67;40.49414;935.6945;;;;
2019/04/13 13:09:49;;;;;;;36.2;27.8;;;;;;;15.38;39.69336;935.5906;;;;
2019/04/13 13:12:59;;;;;;;35;28;;;;;;;15.54;40.04297;935.5936;;;;
2019/04/13 13:16:12;;;;;;;34;27.7;;;;;;;15.89;38.47852;935.7204;;;;
2019/04/13 13:19:22;;;;;;;32.1;28.1;;;;;;;15.78;39.82227;935.7072;;;;
2019/04/13 13:22:33;;;;;;;35.1;29.1;;;;;;;14.02;41.50293;935.725;;;;
2019/04/13 13:25:45;;;;;;;36.7;31.2;;;;;;;13.39;44.32813;935.688;;;;
2019/04/13 13:28:55;;;;;;;35.3;30;;;;;;;13.08;44.70996;935.6234;;;;
2019/04/13 13:32:04;;;;;;;37;30.9;;;;;;;12.04;47.63965;935.6861;;;;
2019/04/13 13:35:14;;;;;;;37.5;30.9;;;;;;;11.82;49.06934;935.6284;;;;
2019/04/13 13:38:25;;;;;;;37.5;30.8;;;;;;;12.06;45.7168;935.6757;;;;
2019/04/13 13:41:35;;;;;;;37.5;30;;;;;;;12.33;44.54199;935.6853;;;;
2019/04/13 13:44:45;;;;;;;38.4;31.2;;;;;;;12.12;47.52246;935.635;;;;
2019/04/13 13:47:58;;;;;;;39.4;31.5;;;;;;;11.86;47.4707;935.6492;;;;
2019/04/13 13:51:08;;;;;;;41.1;31.3;;;;;;;11.52;47.45703;935.6368;;;;
2019/04/13 13:54:18;;;;;;;40.5;31.4;;;;;;;11.32;46.55371;935.5891;;;;
2019/04/13 13:57:28;;;;;;;38.9;31.8;;;;;;;11.69;47.19922;935.6117;;;;
2019/04/13 14:01:20;;;;;;;35.3;29.1;;;;;;;11.72;45.31543;935.595;;;;
2019/04/13 14:04:30;;;;;;;38.2;30.9;;;;;;;11.88;45.53711;935.5965;;;;
2019/04/13 14:07:40;;;;;;;38.7;30.5;;;;;;;11.68;45.94043;935.5313;;;;
2019/04/13 14:10:50;;;;;;;38.9;31.8;;;;;;;11.29;48.50684;935.5413;;;;
2019/04/13 14:14:01;;;;;;;39.6;32.1;;;;;;;10.74;50.16992;935.5331;;;;
2019/04/13 14:17:15;;;;;;;40;32.7;;;;;;;10.47;50.9043;935.5547;;;;
2019/04/13 14:20:25;;;;;;;40.2;32.8;;;;;;;10.53;49.62012;935.5748;;;;
2019/04/13 14:23:38;;;;;;;42.1;32.6;;;;;;;10.44;49.92871;935.5624;;;;
2019/04/13 14:26:48;;;;;;;41;33;;;;;;;10.47;51.8623;935.5339;;;;
2019/04/13 14:29:58;;;;;;;38.9;32.6;;;;;;;10.46;51.54102;935.5769;;;;
2019/04/13 14:33:11;;;;;;;41.4;32.5;;;;;;;10.69;50.58594;935.5974;;;;
2019/04/13 14:36:25;;;;;;;41.3;33.3;;;;;;;10.65;50.35449;935.6473;;;;
2019/04/13 14:39:35;;;;;;;40.1;32.7;;;;;;;10.42;51.58203;935.5901;;;;
2019/04/13 14:42:47;;;;;;;42.9;33.1;;;;;;;10.3;51.48926;935.5884;;;;
2019/04/13 14:46:00;;;;;;;39.9;32.3;;;;;;;10.15;50.18164;935.6234;;;;
2019/04/13 14:49:10;;;;;;;43;32.9;;;;;;;10.15;51.89258;935.7213;;;;
2019/04/13 14:52:21;;;;;;;41.2;33.6;;;;;;;10.04;51.7998;935.6895;;;;
2019/04/13 14:55:34;;;;;;;42.6;33.7;;;;;;;9.99;52.64844;935.669;;;;
2019/04/13 14:58:44;;;;;;;39.5;33.3;;;;;;;10.09;51.44043;935.6931;;;;
2019/04/13 15:01:54;;;;;;;39.3;32.6;;;;;;;10.35;51.79102;935.7112;;;;
2019/04/13 15:05:05;;;;;;;39.3;32.3;;;;;;;10.15;52.12012;935.6624;;;;
2019/04/13 15:08:15;;;;;;;41.6;34.3;;;;;;;10.12;51.5127;935.7243;;;;
2019/04/13 15:11:25;;;;;;;40.8;31.6;;;;;;;9.93;53.12988;935.6836;;;;
2019/04/13 15:14:35;;;;;;;41;33;;;;;;;9.6;53.84277;935.7266;;;;
2019/04/13 15:17:54;;;;;;;43.9;33.7;;;;;;;9;57.1709;935.85;;;;
2019/04/13 15:21:05;;;;;;;40.9;34.2;;;;;;;8.86;59.07324;935.8167;;;;
2019/04/13 15:24:15;;;;;;;44;36;;;;;;;9.11;58.8457;935.8404;;;;
2019/04/13 15:27:25;;;;;;;43.6;35.4;;;;;;;9.49;57.09766;935.8178;;;;
2019/04/13 15:30:35;;;;;;;44.9;35.8;;;;;;;9.57;56.7334;935.8185;;;;
2019/04/13 15:33:50;;;;;;;44.7;36.7;;;;;;;9.62;57.94727;935.8058;;;;
2019/04/13 15:37:03;;;;;;;47.2;37.4;;;;;;;9.36;59.32422;935.8178;;;;
2019/04/13 15:40:14;;;;;;;54.4;40.9;;;;;;;9.25;58.67285;935.8358;;;;
2019/04/13 15:43:24;;;;;;;47.5;37.4;;;;;;;9.14;59.74805;935.8931;;;;
2019/04/13 15:46:35;;;;;;;49;38;;;;;;;9.12;60.79297;935.9032;;;;
2019/04/13 15:49:45;;;;;;;46.2;37.2;;;;;;;9.6;58.04688;935.9428;;;;
2019/04/13 15:52:55;;;;;;;44.9;35.6;;;;;;;9.79;56.36328;935.9336;;;;
2019/04/13 15:56:05;;;;;;;44.2;35.2;;;;;;;9.65;55.62598;935.9475;;;;
2019/04/13 15:59:15;;;;;;;43.2;34.7;;;;;;;9.93;54.25977;935.9119;;;;
2019/04/13 16:02:25;;;;;;;43.5;34.8;;;;;;;9.77;54.98047;935.9016;;;;
2019/04/13 16:05:35;;;;;;;43.7;35.1;;;;;;;9.82;54.64551;935.9826;;;;
2019/04/13 16:08:54;;;;;;;43.1;34.7;;;;;;;9.75;54.10156;935.9373;;;;
2019/04/13 16:12:09;;;;;;;43.5;34.7;;;;;;;9.86;54.28613;935.9274;;;;
2019/04/13 16:15:26;;;;;;;42.4;34.8;;;;;;;9.88;55.94043;935.9003;;;;
2019/04/13 16:18:37;;;;;;;44.4;35.7;;;;;;;9.74;57.62109;935.9221;;;;
2019/04/13 16:21:47;;;;;;;49;36.7;;;;;;;9.53;60.10938;935.9461;;;;
2019/04/13 16:24:57;;;;;;;46.5;36.5;;;;;;;9.5;60.69824;935.9275;;;;
2019/04/13 16:28:12;;;;;;;46.7;36.9;;;;;;;9.6;60.0166;935.9308;;;;
2019/04/13 16:34:41;;;;;;;48.4;37.1;;;;;;;9.27;62.72656;935.9147;;;;
2019/04/13 16:37:52;;;;;;;47.7;37.3;;;;;;;9.11;63.78418;935.9548;;;;
2019/04/13 16:41:02;;;;;;;50.4;38.1;;;;;;;8.72;65.38672;935.9567;;;;
2019/04/13 16:44:22;;;;;;;46.1;37.4;;;;;;;8.62;62.80273;935.923;;;;
2019/04/13 16:47:46;;;;;;;48.5;38.1;;;;;;;8.56;64.79395;935.9797;;;;
2019/04/13 16:57:16;;;;;;;47.3;36.7;;;;;;;7.88;66.14453;935.9419;;;;
2019/04/13 17:00:55;;;;;;;46.8;37.5;;;;;;;7.74;67.15527;936.0044;;;;
2019/04/13 17:04:56;;;;;;;46.3;37.1;;;;;;;7.79;67.70703;935.975;;;;
2019/04/13 17:06:34;;;;;;;45.6;36.9;;;;;;;7.57;67.9668;935.9941;;;;
2019/04/13 17:09:44;;;;;;;47;36.5;;;;;;;7.66;68.49121;936.0711;;;;
2019/04/13 17:12:54;;;;;;;47.9;37.8;;;;;;;7.71;68.20508;935.9738;;;;
2019/04/13 17:16:04;;;;;;;47.9;39;;;;;;;7.53;68.2666;936.0061;;;;
2019/04/13 17:18:53;;;;;;;49.2;40.7;;;;;;;7.2;70.62695;936.0718;;;;
2019/04/13 17:21:09;;;;;;;49.4;40.5;;;;;;;7.12;71.67969;936.0196;;;;
2019/04/13 17:23:46;;;;;;;51.1;40.7;;;;;;;7.2;71.09277;936.0378;;;;
2019/04/13 17:26:11;;;;;;;52.8;41.7;;;;;;;7.17;72.44824;936.0531;;;;
2019/04/13 17:30:39;;;;;;;54.6;42.7;;;;;;;7.15;72.16016;936.1057;;;;
2019/04/13 17:33:08;;;;;;;57.1;44.3;;;;;;;7.23;72.94336;936.1161;;;;
2019/04/13 17:35:27;;;;;;;54.9;43.9;;;;;;;7.06;74.52539;936.0875;;;;
2019/04/13 17:37:51;;;;;;;57;45.2;;;;;;;7.23;74.77832;936.1415;;;;
2019/04/13 17:40:19;;;;;;;57.8;46.1;;;;;;;7.53;74.02637;936.1749;;;;
2019/04/13 17:42:59;;;;;;;58.4;46;;;;;;;7.89;72.94336;936.1735;;;;
2019/04/13 17:46:07;;;;;;;58;45.7;;;;;;;7.39;73.73145;936.1951;;;;
2019/04/13 17:47:52;;;;;;;61.8;48.6;;;;;;;7.32;75.54395;936.1757;;;;
2019/04/13 17:50:27;;;;;;;63.3;48;;;;;;;7.14;76.51074;936.2285;;;;
2019/04/13 17:55:06;;;;;;;63.1;49;;;;;;;7.11;76.34668;936.193;;;;
2019/04/13 17:57:25;;;;;;;61.3;48.7;;;;;;;6.95;76.19336;936.2316;;;;
2019/04/13 18:00:07;;;;;;;64.6;48.4;;;;;;;6.9;76.70313;936.2827;;;;
2019/04/13 18:07:05;;;;;;;64.7;49.9;;;;;;;6.87;77.09473;936.3486;;;;
2019/04/13 18:12:00;;;;;;;66.3;51.1;;;;;;;6.89;77.25781;936.5027;;;;
2019/04/13 18:14:15;;;;;;;67.7;51.8;;;;;;;7.15;76.27246;936.5278;;;;
2019/04/13 18:16:57;;;;;;;66.7;50.2;;;;;;;7.27;76.07813;936.497;;;;
2019/04/13 18:19:10;;;;;;;68.7;51.1;;;;;;;7.41;76.31934;936.595;;;;
2019/04/13 18:21:25;;;;;;;65.3;50.1;;;;;;;7.31;75.72363;936.5778;;;;
2019/04/13 18:23:50;;;;;;;68.2;52.4;;;;;;;7.31;77.19629;936.5991;;;;
2019/04/13 18:26:16;;;;;;;64;50.1;;;;;;;7.41;75.92188;936.6624;;;;
2019/04/13 18:28:43;;;;;;;68.3;51.3;;;;;;;7.36;76.02637;936.5613;;;;
2019/04/13 18:31:06;;;;;;;66.3;51.8;;;;;;;7.06;76.98145;936.6834;;;;
2019/04/13 18:33:31;;;;;;;67.4;52.4;;;;;;;7.2;77.16602;936.6753;;;;
2019/04/13 18:35:56;;;;;;;69.2;52.4;;;;;;;7.1;78.26758;936.7263;;;;
2019/04/13 18:38:21;;;;;;;68;52.8;;;;;;;7.18;77.85156;936.7999;;;;
2019/04/13 18:40:46;;;;;;;72.8;55.6;;;;;;;7.37;77.62598;936.742;;;;
2019/04/13 18:43:12;;;;;;;64.6;51;;;;;;;7.09;77.29199;936.8076;;;;
2019/04/13 18:45:37;;;;;;;69.1;52.6;;;;;;;6.69;78.43066;936.7726;;;;
2019/04/13 18:48:02;;;;;;;68;52.6;;;;;;;6.65;78.6416;936.8597;;;;
2019/04/13 18:50:27;;;;;;;70.5;53.7;;;;;;;6.74;78.59961;936.8401;;;;